Time;durP1;ratioP1;P1;durP2;ratioP2;P2;SDS_P1;SDS_P2;PMS_P1;PMS_P2;Temp;Humidity;BMP_temperature;BMP_pressure;BME280_temperature;BME280_humidity;BME280_pressure;Samples;Min_cycle;Max_cycle;Signal;HPM_P1;HPM_P2
2023/06/26 00:01:23;;;;;;;;;;;23.70;95.70;;;;;;5002928;28;20018;-76
2023/06/26 00:03:48;;;;;;;;;;;23.70;95.80;;;;;;5034884;28;19916;-77
2023/06/26 00:06:14;;;;;;;;;;;23.60;95.80;;;;;;5021468;28;19967;-76
2023/06/26 00:08:40;;;;;;;;;;;23.60;96.00;;;;;;5019907;28;20445;-77
2023/06/26 00:11:05;;;;;;;;;;;23.50;96.10;;;;;;5021849;28;19917;-77
2023/06/26 00:13:31;;;;;;;;;;;23.50;96.20;;;;;;5021330;28;19948;-77
2023/06/26 00:15:56;;;;;;;;;;;23.50;96.30;;;;;;5019909;28;19939;-77
2023/06/26 00:18:23;;;;;;;;;;;23.50;96.40;;;;;;5002569;28;20048;-76
2023/06/26 00:20:48;;;;;;;;;;;23.40;96.50;;;;;;5006688;28;19917;-76
2023/06/26 00:23:16;;;;;;;;;;;23.40;96.60;;;;;;5024923;28;19916;-77
2023/06/26 00:25:43;;;;;;;;;;;23.30;96.70;;;;;;5023148;28;20387;-76
2023/06/26 00:28:09;;;;;;;;;;;23.30;96.80;;;;;;5023915;28;20477;-76
2023/06/26 00:30:34;;;;;;;;;;;23.30;96.90;;;;;;5022166;28;19913;-76
2023/06/26 00:33:00;;;;;;;;;;;23.30;96.90;;;;;;5024084;28;19932;-76
2023/06/26 00:35:26;;;;;;;;;;;23.30;97.00;;;;;;5006771;28;19917;-77
2023/06/26 00:37:51;;;;;;;;;;;23.20;97.10;;;;;;5024669;28;19913;-77
2023/06/26 00:40:17;;;;;;;;;;;23.20;97.20;;;;;;5024703;28;19916;-77
2023/06/26 00:42:42;;;;;;;;;;;23.20;97.40;;;;;;5024107;28;19916;-76
2023/06/26 00:45:09;;;;;;;;;;;23.10;97.50;;;;;;5021210;28;21461;-77
2023/06/26 00:47:34;;;;;;;;;;;23.10;97.50;;;;;;5023886;28;19916;-77
2023/06/26 00:50:00;;;;;;;;;;;23.10;97.60;;;;;;5024729;28;19924;-77
2023/06/26 00:52:27;;;;;;;;;;;23.10;97.70;;;;;;5024552;28;20284;-76
2023/06/26 00:54:52;;;;;;;;;;;23.10;97.80;;;;;;5021948;28;19917;-76
2023/06/26 00:57:18;;;;;;;;;;;23.00;97.90;;;;;;5024561;28;19913;-76
2023/06/26 00:59:43;;;;;;;;;;;22.90;98.00;;;;;;5023927;28;19909;-77
2023/06/26 01:02:09;;;;;;;;;;;22.80;98.10;;;;;;5001120;28;19916;-76
2023/06/26 01:04:35;;;;;;;;;;;22.80;98.20;;;;;;5023970;28;19917;-76
2023/06/26 01:07:02;;;;;;;;;;;22.80;98.30;;;;;;5023866;28;20007;-76
2023/06/26 01:09:28;;;;;;;;;;;22.80;98.30;;;;;;5023364;28;20332;-76
2023/06/26 01:11:54;;;;;;;;;;;22.70;98.50;;;;;;5038787;28;19927;-76
2023/06/26 01:14:19;;;;;;;;;;;22.70;98.50;;;;;;5024005;28;19939;-76
2023/06/26 01:16:47;;;;;;;;;;;22.70;98.50;;;;;;5024333;28;20341;-76
2023/06/26 01:19:24;;;;;;;;;;;22.70;98.60;;;;;;5023860;28;20067;-77
2023/06/26 01:21:51;;;;;;;;;;;22.70;98.70;;;;;;5022945;28;20411;-76
2023/06/26 01:24:20;;;;;;;;;;;22.70;98.80;;;;;;5024566;28;21769;-76
2023/06/26 01:26:48;;;;;;;;;;;22.60;98.90;;;;;;5020302;28;20420;-76
2023/06/26 01:29:14;;;;;;;;;;;22.60;99.00;;;;;;4998580;28;20430;-76
2023/06/26 01:31:40;;;;;;;;;;;22.60;99.00;;;;;;5023105;28;19951;-77
2023/06/26 01:34:06;;;;;;;;;;;22.60;99.10;;;;;;4999446;28;20423;-76
2023/06/26 01:36:31;;;;;;;;;;;22.70;99.10;;;;;;4999097;28;19924;-76
2023/06/26 01:38:57;;;;;;;;;;;22.70;99.10;;;;;;5020782;28;19916;-76
2023/06/26 01:41:22;;;;;;;;;;;22.80;99.20;;;;;;5022944;28;19909;-77
2023/06/26 01:44:01;;;;;;;;;;;22.80;99.20;;;;;;5037396;28;19917;-76
2023/06/26 01:46:45;;;;;;;;;;;22.80;99.30;;;;;;5037417;28;19932;-76
2023/06/26 01:49:16;;;;;;;;;;;22.80;99.40;;;;;;5037829;28;20389;-77
2023/06/26 01:51:44;;;;;;;;;;;22.90;99.40;;;;;;5023034;28;19916;-77
2023/06/26 01:54:11;;;;;;;;;;;22.90;99.40;;;;;;5019430;28;19924;-76
2023/06/26 01:56:37;;;;;;;;;;;22.90;99.50;;;;;;5000250;28;19912;-77
2023/06/26 01:59:05;;;;;;;;;;;22.90;99.60;;;;;;5022507;28;19940;-77
2023/06/26 02:01:33;;;;;;;;;;;22.90;99.60;;;;;;5037870;28;19943;-76
2023/06/26 02:04:00;;;;;;;;;;;23.00;99.70;;;;;;5004666;28;19909;-77
2023/06/26 02:06:25;;;;;;;;;;;23.00;99.70;;;;;;5038313;28;19921;-77
2023/06/26 02:08:51;;;;;;;;;;;23.00;99.70;;;;;;5022154;28;19920;-76
2023/06/26 02:11:16;;;;;;;;;;;23.00;99.80;;;;;;5021688;28;20353;-76
2023/06/26 02:13:42;;;;;;;;;;;23.00;99.90;;;;;;5021832;28;19917;-75
2023/06/26 02:16:07;;;;;;;;;;;22.90;99.90;;;;;;5004074;28;19921;-76
2023/06/26 02:18:33;;;;;;;;;;;22.90;99.90;;;;;;5020207;28;19913;-77
2023/06/26 02:20:58;;;;;;;;;;;22.80;99.90;;;;;;5021307;28;19997;-76
2023/06/26 02:23:24;;;;;;;;;;;22.80;99.90;;;;;;5022513;28;19920;-75
2023/06/26 02:25:49;;;;;;;;;;;22.70;99.90;;;;;;5004936;28;19945;-76
2023/06/26 02:28:14;;;;;;;;;;;22.70;99.90;;;;;;5019930;28;19920;-76
2023/06/26 02:30:40;;;;;;;;;;;22.60;99.90;;;;;;5020274;28;20416;-76
2023/06/26 02:33:05;;;;;;;;;;;22.50;99.90;;;;;;5021711;28;19921;-76
2023/06/26 02:35:32;;;;;;;;;;;22.50;99.90;;;;;;5022346;28;19924;-76
2023/06/26 02:37:58;;;;;;;;;;;22.40;99.90;;;;;;5020661;28;20023;-77
2023/06/26 02:40:23;;;;;;;;;;;22.30;99.90;;;;;;5021225;28;20016;-76
2023/06/26 02:42:49;;;;;;;;;;;22.20;99.90;;;;;;5021817;28;19917;-75
2023/06/26 02:45:14;;;;;;;;;;;22.20;99.90;;;;;;5000615;28;19913;-76
2023/06/26 02:47:40;;;;;;;;;;;22.10;99.90;;;;;;5021936;28;19924;-76
2023/06/26 02:50:06;;;;;;;;;;;22.00;99.90;;;;;;4997692;28;19947;-76
2023/06/26 02:52:31;;;;;;;;;;;22.00;99.90;;;;;;5021721;28;19923;-76
2023/06/26 02:54:57;;;;;;;;;;;21.90;99.90;;;;;;5017662;28;19912;-76
2023/06/26 02:57:22;;;;;;;;;;;21.90;99.90;;;;;;5003593;28;20517;-76
2023/06/26 02:59:48;;;;;;;;;;;21.80;99.90;;;;;;5019797;28;19913;-75
2023/06/26 03:02:13;;;;;;;;;;;21.80;99.90;;;;;;5035793;28;19924;-76
2023/06/26 03:04:39;;;;;;;;;;;21.70;99.90;;;;;;4997237;28;19913;-76
2023/06/26 03:07:04;;;;;;;;;;;21.80;99.90;;;;;;4997919;28;19920;-76
2023/06/26 03:09:30;;;;;;;;;;;21.70;99.90;;;;;;5020886;28;19971;-76
2023/06/26 03:11:56;;;;;;;;;;;21.60;99.90;;;;;;5021344;28;19913;-76
2023/06/26 03:14:22;;;;;;;;;;;21.60;99.90;;;;;;5021232;28;19916;-76
2023/06/26 03:16:47;;;;;;;;;;;21.60;99.90;;;;;;5035323;28;20284;-77
2023/06/26 03:19:13;;;;;;;;;;;21.50;99.90;;;;;;5003971;28;19996;-77
2023/06/26 03:21:38;;;;;;;;;;;21.50;99.90;;;;;;5019214;28;20434;-77
2023/06/26 03:24:04;;;;;;;;;;;21.50;99.90;;;;;;5020943;28;20882;-77
2023/06/26 03:26:29;;;;;;;;;;;21.50;99.90;;;;;;5003718;28;20300;-77
2023/06/26 03:28:55;;;;;;;;;;;21.50;99.90;;;;;;5020302;28;20027;-77
2023/06/26 03:31:20;;;;;;;;;;;21.40;99.90;;;;;;5035568;28;19912;-76
2023/06/26 03:33:46;;;;;;;;;;;21.40;99.90;;;;;;4982325;28;19929;-77
2023/06/26 03:36:11;;;;;;;;;;;21.30;99.90;;;;;;4977793;28;19924;-77
2023/06/26 03:38:37;;;;;;;;;;;21.30;99.90;;;;;;4976837;28;19975;-77
2023/06/26 03:41:02;;;;;;;;;;;21.30;99.90;;;;;;4999872;28;20369;-77
2023/06/26 03:43:28;;;;;;;;;;;21.20;99.90;;;;;;5001420;28;19917;-77
2023/06/26 03:45:53;;;;;;;;;;;21.20;99.90;;;;;;4979369;28;20262;-77
2023/06/26 03:48:19;;;;;;;;;;;21.20;99.90;;;;;;4979311;28;19981;-77
2023/06/26 03:50:45;;;;;;;;;;;21.10;99.90;;;;;;4981242;28;19916;-77
2023/06/26 03:53:10;;;;;;;;;;;21.10;99.90;;;;;;4986215;28;19913;-76
2023/06/26 03:55:38;;;;;;;;;;;21.10;99.90;;;;;;5005680;28;19913;-75
2023/06/26 03:58:03;;;;;;;;;;;21.10;99.90;;;;;;5004383;28;19910;-75
2023/06/26 04:00:29;;;;;;;;;;;21.10;99.90;;;;;;5004429;28;19967;-76
2023/06/26 04:02:55;;;;;;;;;;;21.00;99.90;;;;;;5004120;28;19940;-76
2023/06/26 04:05:20;;;;;;;;;;;21.00;99.90;;;;;;4988620;28;19913;-76
2023/06/26 04:07:49;;;;;;;;;;;21.00;99.90;;;;;;5004740;28;19916;-76
2023/06/26 04:10:14;;;;;;;;;;;20.90;99.90;;;;;;5017171;28;20280;-76
2023/06/26 04:12:40;;;;;;;;;;;20.90;99.90;;;;;;5003772;28;19909;-76
2023/06/26 04:15:05;;;;;;;;;;;20.90;99.90;;;;;;5002963;28;19913;-76
2023/06/26 04:17:31;;;;;;;;;;;20.90;99.90;;;;;;5004680;28;19918;-76
2023/06/26 04:19:56;;;;;;;;;;;20.90;99.90;;;;;;5004768;28;20280;-76
2023/06/26 04:22:22;;;;;;;;;;;20.90;99.90;;;;;;5004487;28;19917;-76
2023/06/26 04:24:47;;;;;;;;;;;20.90;99.90;;;;;;5018211;28;19913;-76
2023/06/26 04:27:16;;;;;;;;;;;20.90;99.90;;;;;;5003967;28;21994;-76
2023/06/26 04:29:42;;;;;;;;;;;20.90;99.90;;;;;;5004106;28;19925;-76
2023/06/26 04:32:07;;;;;;;;;;;20.90;99.90;;;;;;5003190;28;19919;-76
2023/06/26 04:34:34;;;;;;;;;;;20.90;99.90;;;;;;5000393;28;20006;-76
2023/06/26 04:36:59;;;;;;;;;;;20.90;99.90;;;;;;5023414;28;19920;-76
2023/06/26 04:39:25;;;;;;;;;;;20.90;99.90;;;;;;5039243;28;19909;-76
2023/06/26 04:41:51;;;;;;;;;;;20.90;99.90;;;;;;5023531;28;19909;-76
2023/06/26 04:44:16;;;;;;;;;;;20.90;99.90;;;;;;5024687;28;19928;-76
2023/06/26 04:46:43;;;;;;;;;;;20.90;99.90;;;;;;5023370;28;19925;-76
2023/06/26 04:49:09;;;;;;;;;;;20.90;99.90;;;;;;5022729;28;19917;-77
2023/06/26 04:51:40;;;;;;;;;;;20.90;99.90;;;;;;5019523;28;22514;-77
2023/06/26 04:54:06;;;;;;;;;;;20.90;99.90;;;;;;5021885;28;20708;-77
2023/06/26 04:56:32;;;;;;;;;;;20.80;99.90;;;;;;5020975;28;19917;-77
2023/06/26 04:58:57;;;;;;;;;;;20.80;99.90;;;;;;5021196;28;19920;-77
2023/06/26 05:01:23;;;;;;;;;;;20.80;99.90;;;;;;5039799;28;20357;-77
2023/06/26 05:03:49;;;;;;;;;;;20.80;99.90;;;;;;5022839;28;19912;-77
2023/06/26 05:06:14;;;;;;;;;;;20.80;99.90;;;;;;5023755;28;19959;-77
2023/06/26 05:08:40;;;;;;;;;;;20.80;99.90;;;;;;5006376;28;19921;-78
2023/06/26 05:11:05;;;;;;;;;;;20.90;99.90;;;;;;5023548;28;19919;-77
2023/06/26 05:13:31;;;;;;;;;;;20.90;99.90;;;;;;5023140;28;19924;-77
2023/06/26 05:15:56;;;;;;;;;;;20.90;99.90;;;;;;5022322;28;20023;-77
2023/06/26 05:18:21;;;;;;;;;;;20.90;99.90;;;;;;5000202;28;20266;-77
2023/06/26 05:20:47;;;;;;;;;;;21.00;99.90;;;;;;5000012;28;19920;-77
2023/06/26 05:23:13;;;;;;;;;;;21.00;99.90;;;;;;5001316;28;19935;-77
2023/06/26 05:25:39;;;;;;;;;;;21.00;99.90;;;;;;5022619;28;19920;-77
2023/06/26 05:28:05;;;;;;;;;;;21.00;99.90;;;;;;5003784;28;19957;-76
2023/06/26 05:30:31;;;;;;;;;;;21.10;99.90;;;;;;5001035;28;19955;-76
2023/06/26 05:32:59;;;;;;;;;;;21.20;99.90;;;;;;5020407;28;19951;-75
2023/06/26 05:35:25;;;;;;;;;;;21.20;99.90;;;;;;5006354;28;19909;-77
2023/06/26 05:37:54;;;;;;;;;;;21.40;99.90;;;;;;5016659;28;20384;-78
2023/06/26 05:40:20;;;;;;;;;;;21.50;99.90;;;;;;5032810;28;20427;-78
2023/06/26 05:42:46;;;;;;;;;;;21.60;99.90;;;;;;4997617;28;19925;-76
2023/06/26 05:45:12;;;;;;;;;;;21.70;99.90;;;;;;5000998;28;19917;-77
2023/06/26 05:47:38;;;;;;;;;;;21.70;99.90;;;;;;5022567;28;19917;-77
2023/06/26 05:50:04;;;;;;;;;;;21.60;99.90;;;;;;5002433;28;20048;-77
2023/06/26 05:52:30;;;;;;;;;;;21.60;99.90;;;;;;5021811;28;19919;-76
2023/06/26 05:54:58;;;;;;;;;;;21.50;99.90;;;;;;5020948;28;19909;-76
2023/06/26 05:57:24;;;;;;;;;;;21.50;99.90;;;;;;5023404;28;20015;-77
2023/06/26 05:59:50;;;;;;;;;;;21.50;99.90;;;;;;5022079;28;20136;-77
2023/06/26 06:02:16;;;;;;;;;;;21.50;99.90;;;;;;5021851;28;19913;-76
2023/06/26 06:04:41;;;;;;;;;;;21.60;99.90;;;;;;4998194;28;19917;-76
2023/06/26 06:07:07;;;;;;;;;;;21.70;99.90;;;;;;4998431;28;19913;-77
2023/06/26 06:09:32;;;;;;;;;;;21.80;99.90;;;;;;4998573;28;19921;-76
2023/06/26 06:11:58;;;;;;;;;;;21.80;99.90;;;;;;5020162;28;20348;-76
2023/06/26 06:14:24;;;;;;;;;;;21.80;99.90;;;;;;5020026;28;19913;-76
2023/06/26 06:16:49;;;;;;;;;;;21.70;99.90;;;;;;5021065;28;20379;-77
2023/06/26 06:19:15;;;;;;;;;;;21.70;99.90;;;;;;5021260;28;20007;-76
2023/06/26 06:21:40;;;;;;;;;;;21.70;99.90;;;;;;5022632;28;19913;-76
2023/06/26 06:24:09;;;;;;;;;;;21.70;99.90;;;;;;5019681;28;20706;-76
2023/06/26 06:26:35;;;;;;;;;;;21.80;99.90;;;;;;5021894;28;19944;-75
2023/06/26 06:29:01;;;;;;;;;;;21.80;99.90;;;;;;5021306;28;20007;-76
2023/06/26 06:31:28;;;;;;;;;;;21.80;99.90;;;;;;5022643;28;20405;-77
2023/06/26 06:33:54;;;;;;;;;;;21.80;99.90;;;;;;5020868;28;19933;-77
2023/06/26 06:36:19;;;;;;;;;;;21.80;99.90;;;;;;5019999;28;19913;-76
2023/06/26 06:38:45;;;;;;;;;;;21.80;99.90;;;;;;5019086;28;19916;-77
2023/06/26 06:41:11;;;;;;;;;;;21.80;99.90;;;;;;5021201;28;20391;-76
2023/06/26 06:43:36;;;;;;;;;;;21.90;99.90;;;;;;5018047;28;19917;-77
2023/06/26 06:46:02;;;;;;;;;;;22.00;99.90;;;;;;5006501;28;20008;-76
2023/06/26 06:48:27;;;;;;;;;;;22.20;99.90;;;;;;5022079;28;19913;-76
2023/06/26 06:50:53;;;;;;;;;;;22.30;99.90;;;;;;5035560;28;19913;-76
2023/06/26 06:53:20;;;;;;;;;;;22.30;99.90;;;;;;5020537;28;19931;-76
2023/06/26 06:55:46;;;;;;;;;;;22.30;99.90;;;;;;5020618;28;19913;-76
2023/06/26 06:58:11;;;;;;;;;;;22.30;99.90;;;;;;5020395;28;19913;-77
2023/06/26 07:00:37;;;;;;;;;;;22.30;99.90;;;;;;5020102;28;19920;-77
2023/06/26 07:03:02;;;;;;;;;;;22.30;99.90;;;;;;4998387;28;20008;-77
2023/06/26 07:05:28;;;;;;;;;;;22.20;99.90;;;;;;5020737;28;19913;-77
2023/06/26 07:07:53;;;;;;;;;;;22.20;99.90;;;;;;5016546;28;19909;-77
2023/06/26 07:10:19;;;;;;;;;;;22.20;99.90;;;;;;5021620;28;19925;-77
2023/06/26 07:12:44;;;;;;;;;;;22.20;99.90;;;;;;5021460;28;19917;-78
2023/06/26 07:15:10;;;;;;;;;;;22.30;99.90;;;;;;5002046;28;20380;-78
2023/06/26 07:17:37;;;;;;;;;;;22.40;99.90;;;;;;5036978;28;20074;-78
2023/06/26 07:20:08;;;;;;;;;;;22.70;99.90;;;;;;4997685;28;19935;-78
2023/06/26 07:22:34;;;;;;;;;;;22.90;99.90;;;;;;4997322;28;20003;-77
2023/06/26 07:25:01;;;;;;;;;;;23.00;99.90;;;;;;5033582;28;19913;-78
2023/06/26 07:27:26;;;;;;;;;;;22.90;99.90;;;;;;4997493;28;19967;-78
2023/06/26 07:29:52;;;;;;;;;;;23.00;99.90;;;;;;5018949;28;19925;-78
2023/06/26 07:32:17;;;;;;;;;;;23.00;99.90;;;;;;4998707;28;19913;-78
2023/06/26 07:34:43;;;;;;;;;;;23.10;99.90;;;;;;5019799;28;19913;-77
2023/06/26 07:37:08;;;;;;;;;;;23.10;99.90;;;;;;4999867;28;19920;-78
2023/06/26 07:39:35;;;;;;;;;;;23.10;99.90;;;;;;5004358;28;19913;-77
2023/06/26 07:42:00;;;;;;;;;;;23.10;99.90;;;;;;5002331;28;19909;-77
2023/06/26 07:44:26;;;;;;;;;;;23.20;99.90;;;;;;5021318;28;19913;-78
2023/06/26 07:46:52;;;;;;;;;;;23.20;99.90;;;;;;5035616;28;19918;-77
2023/06/26 07:49:17;;;;;;;;;;;23.10;99.90;;;;;;5021241;28;20270;-77
2023/06/26 07:51:43;;;;;;;;;;;23.00;99.90;;;;;;4996528;28;19909;-77
2023/06/26 07:54:08;;;;;;;;;;;23.00;99.90;;;;;;5033026;28;19916;-77
2023/06/26 07:56:51;;;;;;;;;;;23.00;99.90;;;;;;5021260;28;19943;-77
2023/06/26 07:59:16;;;;;;;;;;;23.20;99.90;;;;;;5020113;28;20312;-77
2023/06/26 08:01:42;;;;;;;;;;;23.30;99.90;;;;;;4997678;28;19920;-77
2023/06/26 08:04:10;;;;;;;;;;;23.40;99.90;;;;;;5013202;28;19921;-78
2023/06/26 08:06:40;;;;;;;;;;;23.50;99.90;;;;;;5035687;28;19956;-77
2023/06/26 08:09:08;;;;;;;;;;;23.40;99.90;;;;;;4996572;28;20388;-77
2023/06/26 08:11:34;;;;;;;;;;;23.40;99.90;;;;;;5018250;28;20428;-77
2023/06/26 08:13:59;;;;;;;;;;;23.40;99.90;;;;;;4996766;28;20115;-77
2023/06/26 08:16:26;;;;;;;;;;;23.30;99.90;;;;;;4996497;28;20010;-78
2023/06/26 08:18:54;;;;;;;;;;;23.30;99.90;;;;;;4996859;28;19913;-77
2023/06/26 08:21:21;;;;;;;;;;;23.30;99.90;;;;;;5019151;28;20004;-77
2023/06/26 08:23:49;;;;;;;;;;;23.30;99.90;;;;;;4996383;28;20003;-77
2023/06/26 08:26:15;;;;;;;;;;;23.40;99.90;;;;;;5000367;28;19956;-76
2023/06/26 08:28:40;;;;;;;;;;;23.50;99.90;;;;;;5001809;28;20613;-78
2023/06/26 08:31:06;;;;;;;;;;;23.70;99.90;;;;;;4999272;28;19916;-78
2023/06/26 08:33:35;;;;;;;;;;;23.70;99.90;;;;;;5018112;28;19951;-77
2023/06/26 08:36:10;;;;;;;;;;;23.70;99.90;;;;;;5019636;28;19935;-77
2023/06/26 08:38:48;;;;;;;;;;;23.70;99.90;;;;;;5022101;28;19916;-78
2023/06/26 08:41:20;;;;;;;;;;;23.70;99.90;;;;;;5016446;28;20359;-78
2023/06/26 08:43:50;;;;;;;;;;;23.70;99.90;;;;;;5022592;28;19917;-77
2023/06/26 08:46:20;;;;;;;;;;;23.60;99.90;;;;;;5022225;28;19917;-77
2023/06/26 08:48:48;;;;;;;;;;;23.60;99.90;;;;;;4998769;28;19917;-77
2023/06/26 08:51:16;;;;;;;;;;;23.60;99.90;;;;;;5000542;28;19917;-76
2023/06/26 08:53:47;;;;;;;;;;;23.60;99.90;;;;;;5022646;28;19959;-77
2023/06/26 08:56:14;;;;;;;;;;;23.60;99.90;;;;;;5023286;28;20008;-77
2023/06/26 08:58:40;;;;;;;;;;;23.60;99.90;;;;;;5005319;28;20369;-76
2023/06/26 09:01:06;;;;;;;;;;;23.70;99.90;;;;;;5002592;28;19924;-76
2023/06/26 09:03:32;;;;;;;;;;;23.80;99.90;;;;;;5038647;28;20445;-76
2023/06/26 09:05:58;;;;;;;;;;;23.90;99.90;;;;;;5019350;28;19913;-78
2023/06/26 09:08:25;;;;;;;;;;;24.00;99.90;;;;;;5023672;28;19964;-77
2023/06/26 09:10:51;;;;;;;;;;;24.10;99.80;;;;;;5021817;28;20008;-78
2023/06/26 09:13:18;;;;;;;;;;;24.10;98.90;;;;;;5020882;28;19916;-77
2023/06/26 09:15:44;;;;;;;;;;;24.00;98.80;;;;;;5002513;28;19951;-77
2023/06/26 09:18:09;;;;;;;;;;;24.00;98.20;;;;;;4997485;28;19920;-77
2023/06/26 09:20:35;;;;;;;;;;;23.80;98.20;;;;;;5021146;28;19913;-76
2023/06/26 09:23:01;;;;;;;;;;;23.80;98.00;;;;;;5000432;28;19916;-77
2023/06/26 09:25:27;;;;;;;;;;;23.90;98.10;;;;;;5023355;28;20016;-76
2023/06/26 09:27:53;;;;;;;;;;;24.20;97.20;;;;;;5015979;28;20746;-76
2023/06/26 09:30:19;;;;;;;;;;;24.20;97.00;;;;;;5022454;28;19928;-77
2023/06/26 09:32:44;;;;;;;;;;;24.10;97.20;;;;;;5037955;28;19924;-76
2023/06/26 09:35:11;;;;;;;;;;;24.10;97.80;;;;;;5021266;28;19916;-76
2023/06/26 09:37:37;;;;;;;;;;;24.80;97.60;;;;;;5021044;28;19917;-77
2023/06/26 09:40:04;;;;;;;;;;;25.60;97.00;;;;;;5021862;28;19918;-77
2023/06/26 09:42:30;;;;;;;;;;;25.90;95.20;;;;;;4997517;28;19967;-78
2023/06/26 09:44:55;;;;;;;;;;;26.20;95.40;;;;;;5021327;28;19912;-77
2023/06/26 09:47:21;;;;;;;;;;;26.90;95.30;;;;;;5022049;28;19983;-77
2023/06/26 09:49:47;;;;;;;;;;;27.50;95.00;;;;;;5020755;28;20630;-77
2023/06/26 09:52:21;;;;;;;;;;;28.10;94.80;;;;;;5021725;28;19921;-76
2023/06/26 09:54:47;;;;;;;;;;;28.00;94.70;;;;;;5018663;28;20031;-77
2023/06/26 09:57:13;;;;;;;;;;;28.10;93.50;;;;;;5021267;28;19913;-77
2023/06/26 09:59:39;;;;;;;;;;;28.10;92.50;;;;;;5020014;28;19913;-77
2023/06/26 10:02:11;;;;;;;;;;;28.20;92.50;;;;;;4999969;28;19935;-77
2023/06/26 10:04:36;;;;;;;;;;;27.80;92.80;;;;;;5020386;28;22191;-77
2023/06/26 10:07:06;;;;;;;;;;;27.20;93.10;;;;;;5019946;28;20552;-76
2023/06/26 10:09:32;;;;;;;;;;;26.80;93.40;;;;;;5019781;28;19929;-77
2023/06/26 10:12:11;;;;;;;;;;;27.50;93.60;;;;;;4998125;28;19913;-76
2023/06/26 10:14:37;;;;;;;;;;;28.30;93.20;;;;;;5000302;28;19924;-78
2023/06/26 10:17:09;;;;;;;;;;;28.00;92.20;;;;;;5003379;28;20301;-78
2023/06/26 10:19:35;;;;;;;;;;;27.30;92.40;;;;;;5036694;28;19920;-76
2023/06/26 10:22:01;;;;;;;;;;;27.30;92.50;;;;;;5001735;28;20010;-76
2023/06/26 10:24:28;;;;;;;;;;;28.00;92.60;;;;;;5021261;28;20479;-76
2023/06/26 10:26:59;;;;;;;;;;;28.70;91.40;;;;;;5020158;28;20341;-76
2023/06/26 10:29:25;;;;;;;;;;;29.30;91.10;;;;;;5020645;28;19929;-76
2023/06/26 10:31:52;;;;;;;;;;;29.60;90.50;;;;;;5020254;28;19913;-77
2023/06/26 10:34:21;;;;;;;;;;;29.80;89.40;;;;;;5019741;28;20000;-77
2023/06/26 10:36:51;;;;;;;;;;;29.50;89.00;;;;;;5021221;28;19952;-78
2023/06/26 10:39:19;;;;;;;;;;;29.10;89.00;;;;;;5036718;28;19904;-78
2023/06/26 10:41:46;;;;;;;;;;;29.10;88.30;;;;;;5021074;28;19948;-77
2023/06/26 10:44:20;;;;;;;;;;;29.30;88.50;;;;;;5021860;28;19912;-77
2023/06/26 10:46:50;;;;;;;;;;;29.90;88.90;;;;;;5015124;28;19971;-76
2023/06/26 10:49:20;;;;;;;;;;;30.60;87.40;;;;;;5020197;28;19940;-77
2023/06/26 10:51:49;;;;;;;;;;;30.80;86.00;;;;;;5023018;28;19936;-78
2023/06/26 10:54:16;;;;;;;;;;;30.90;84.20;;;;;;5021185;28;20360;-77
2023/06/26 10:56:46;;;;;;;;;;;30.80;83.60;;;;;;5021926;28;20578;-77
2023/06/26 10:59:18;;;;;;;;;;;30.70;82.50;;;;;;5023074;28;19934;-77
2023/06/26 11:01:45;;;;;;;;;;;30.50;81.40;;;;;;5022050;28;19980;-77
2023/06/26 11:04:11;;;;;;;;;;;30.40;81.70;;;;;;5004276;28;19963;-77
2023/06/26 11:06:38;;;;;;;;;;;30.10;81.20;;;;;;5037067;28;19913;-77
2023/06/26 11:09:08;;;;;;;;;;;30.10;81.60;;;;;;5022502;28;19917;-77
2023/06/26 11:11:52;;;;;;;;;;;30.50;82.00;;;;;;5021967;28;19916;-77
2023/06/26 11:14:18;;;;;;;;;;;31.00;81.80;;;;;;5036677;28;19957;-77
2023/06/26 11:16:43;;;;;;;;;;;30.80;80.60;;;;;;5022805;28;20013;-77
2023/06/26 11:19:13;;;;;;;;;;;30.10;80.80;;;;;;5036037;28;19909;-77
2023/06/26 11:21:38;;;;;;;;;;;30.00;82.00;;;;;;5022006;28;20396;-77
2023/06/26 11:24:05;;;;;;;;;;;30.20;81.70;;;;;;5022501;28;19920;-77
2023/06/26 11:26:37;;;;;;;;;;;30.00;80.60;;;;;;5022230;28;19956;-77
2023/06/26 11:29:02;;;;;;;;;;;29.80;79.80;;;;;;4996873;28;19921;-77
2023/06/26 11:31:30;;;;;;;;;;;29.70;79.60;;;;;;5002300;28;19971;-77
2023/06/26 11:33:56;;;;;;;;;;;29.00;78.80;;;;;;5019518;28;19923;-77
2023/06/26 11:36:25;;;;;;;;;;;28.60;79.80;;;;;;5021702;28;19944;-77
2023/06/26 11:38:55;;;;;;;;;;;28.50;80.30;;;;;;4998441;28;19955;-77
2023/06/26 11:41:24;;;;;;;;;;;28.40;80.00;;;;;;5021597;28;20388;-77
2023/06/26 11:43:50;;;;;;;;;;;28.30;79.40;;;;;;5017274;28;20357;-77
2023/06/26 11:46:19;;;;;;;;;;;28.60;80.30;;;;;;5019301;28;19960;-77
2023/06/26 11:48:47;;;;;;;;;;;29.30;80.50;;;;;;5003810;28;19955;-77
2023/06/26 11:51:14;;;;;;;;;;;29.70;79.70;;;;;;5016078;28;19932;-77
2023/06/26 11:53:46;;;;;;;;;;;29.50;78.30;;;;;;5018191;28;19948;-77
2023/06/26 11:56:12;;;;;;;;;;;29.50;78.90;;;;;;5020845;28;20368;-77
2023/06/26 11:59:03;;;;;;;;;;;29.60;79.30;;;;;;4998507;28;19960;-77
2023/06/26 12:01:38;;;;;;;;;;;30.00;79.40;;;;;;5014650;28;19987;-77
2023/06/26 12:04:07;;;;;;;;;;;29.60;79.60;;;;;;5015126;28;20369;-77
2023/06/26 12:06:36;;;;;;;;;;;29.70;79.60;;;;;;5020514;28;19975;-77
2023/06/26 12:09:08;;;;;;;;;;;29.80;79.60;;;;;;5021352;28;19928;-77
2023/06/26 12:11:34;;;;;;;;;;;30.40;79.80;;;;;;4999989;28;19912;-78
2023/06/26 12:14:01;;;;;;;;;;;31.00;78.50;;;;;;5023202;28;20036;-77
2023/06/26 12:16:30;;;;;;;;;;;31.10;76.00;;;;;;5002801;28;20284;-77
2023/06/26 12:18:59;;;;;;;;;;;31.10;76.00;;;;;;5022920;28;19924;-77
2023/06/26 12:21:44;;;;;;;;;;;30.80;74.60;;;;;;5006181;28;19916;-77
2023/06/26 12:24:17;;;;;;;;;;;30.50;73.30;;;;;;5005630;28;19913;-77
2023/06/26 12:26:44;;;;;;;;;;;30.60;74.70;;;;;;5024779;28;19921;-77
2023/06/26 12:29:14;;;;;;;;;;;30.30;73.80;;;;;;5000250;28;19963;-77
2023/06/26 12:31:43;;;;;;;;;;;30.10;74.90;;;;;;5007019;28;19956;-77
2023/06/26 12:34:18;;;;;;;;;;;30.20;75.10;;;;;;5023401;28;20072;-77
2023/06/26 12:36:49;;;;;;;;;;;30.70;75.60;;;;;;5022906;28;19916;-78
2023/06/26 12:39:17;;;;;;;;;;;31.00;75.70;;;;;;4989048;28;19924;-78
2023/06/26 12:41:52;;;;;;;;;;;31.20;75.30;;;;;;5021396;28;20365;-78
2023/06/26 12:44:27;;;;;;;;;;;31.50;74.70;;;;;;5022119;28;19909;-79
2023/06/26 12:46:54;;;;;;;;;;;31.60;74.70;;;;;;5023857;28;19916;-78
2023/06/26 12:49:22;;;;;;;;;;;31.80;74.70;;;;;;5024122;28;19921;-79
2023/06/26 12:51:50;;;;;;;;;;;31.80;74.10;;;;;;5020910;28;19917;-77
2023/06/26 12:54:16;;;;;;;;;;;31.90;73.60;;;;;;5020059;28;20280;-78
2023/06/26 12:56:45;;;;;;;;;;;32.10;73.90;;;;;;5004283;28;19913;-78
2023/06/26 12:59:10;;;;;;;;;;;32.20;74.10;;;;;;5022667;28;19912;-78
2023/06/26 13:01:36;;;;;;;;;;;32.20;73.80;;;;;;4999562;28;19967;-78
2023/06/26 13:04:03;;;;;;;;;;;32.30;74.20;;;;;;5000955;28;20012;-78
2023/06/26 13:06:28;;;;;;;;;;;32.60;74.00;;;;;;5020196;28;19921;-78
2023/06/26 13:08:54;;;;;;;;;;;32.60;73.80;;;;;;5005036;28;20270;-78
2023/06/26 13:11:19;;;;;;;;;;;32.50;73.80;;;;;;5005641;28;19963;-78
2023/06/26 13:13:45;;;;;;;;;;;32.20;73.90;;;;;;5003454;28;19999;-78
2023/06/26 13:16:13;;;;;;;;;;;32.40;73.90;;;;;;5021804;28;19917;-78
2023/06/26 13:18:38;;;;;;;;;;;32.10;73.60;;;;;;5038471;28;20396;-78
2023/06/26 13:21:04;;;;;;;;;;;32.10;73.80;;;;;;5004206;28;19909;-78
2023/06/26 13:23:30;;;;;;;;;;;32.20;73.20;;;;;;5023051;28;19963;-78
2023/06/26 13:25:55;;;;;;;;;;;32.20;72.50;;;;;;5002013;28;19956;-77
2023/06/26 13:28:22;;;;;;;;;;;32.10;69.60;;;;;;5017893;28;19913;-78
2023/06/26 13:30:47;;;;;;;;;;;31.40;69.50;;;;;;4998396;28;19928;-78
2023/06/26 13:33:13;;;;;;;;;;;30.60;71.00;;;;;;5018809;28;19921;-78
2023/06/26 13:35:38;;;;;;;;;;;30.80;71.90;;;;;;5021474;28;19920;-78
2023/06/26 13:38:04;;;;;;;;;;;31.00;72.00;;;;;;5021020;28;19955;-78
2023/06/26 13:40:29;;;;;;;;;;;31.60;71.70;;;;;;5006368;28;19963;-77
2023/06/26 13:42:55;;;;;;;;;;;31.90;71.90;;;;;;5036316;28;19956;-78
2023/06/26 13:45:21;;;;;;;;;;;32.10;72.00;;;;;;4998566;28;19913;-79
2023/06/26 13:47:48;;;;;;;;;;;32.30;72.00;;;;;;5021331;28;19928;-78
2023/06/26 13:50:17;;;;;;;;;;;32.50;72.30;;;;;;5000975;28;19955;-78
2023/06/26 13:52:42;;;;;;;;;;;32.50;72.60;;;;;;5003305;28;20522;-78
2023/06/26 13:55:08;;;;;;;;;;;32.30;71.60;;;;;;4999434;28;19917;-78
2023/06/26 13:57:34;;;;;;;;;;;32.30;72.20;;;;;;5020669;28;20005;-78
2023/06/26 14:00:02;;;;;;;;;;;31.90;72.50;;;;;;5021702;28;19959;-78
2023/06/26 14:02:27;;;;;;;;;;;31.80;73.10;;;;;;5022582;28;19913;-78
2023/06/26 14:04:53;;;;;;;;;;;32.10;72.90;;;;;;5001586;28;19913;-78
2023/06/26 14:07:22;;;;;;;;;;;31.60;72.90;;;;;;5038458;28;19940;-77
2023/06/26 14:09:47;;;;;;;;;;;31.00;73.20;;;;;;4999811;28;19971;-76
2023/06/26 14:12:13;;;;;;;;;;;30.30;73.90;;;;;;5023459;28;20304;-78
2023/06/26 14:14:41;;;;;;;;;;;29.70;74.20;;;;;;5005799;28;19915;-77